Metar Cercanos

 

LEPA - Palma De Mallorc, Spain
Distance from station: ONO 38km
Actualización: 22/04/2018 12:30
Despejado
Despejado
 Viento del calm
Viento: Calma
Temperatura: 24°C
Rocío: 12°C
Humedad: 47%
Barómetro: 1018 hPa
Resumen: Despejado
Visibility: greater than 10 km
2018/04/22 10:30 LEPA 221030Z 00000KT CAVOK 24/12 Q1018 NOSIG
LEMH - Mahon/Menorca Is, Spain
Distance from station: ENE 105km
Actualización: 22/04/2018 12:30
Despejado
Despejado
 Viento del S
Viento: S 13 km/h
Temperatura: 21°C
Rocío: 12°C
Humedad: 57%
Barómetro: 1019 hPa
Resumen: Despejado
Visibility: greater than 10 km
2018/04/22 10:30 LEMH 221030Z 19007KT 160V240 CAVOK 21/12 Q1019
 
LEIB - Ibiza/Es Codola, Spain
Distance from station: OSO 165km
Actualización: 22/04/2018 12:30
Despejado
Despejado
 Viento del ENE
Viento: ENE 20 km/h
Temperatura: 20°C
Rocío: 13°C
Humedad: 64%
Barómetro: 1018 hPa
Resumen: Despejado
Visibility: greater than 10 km
2018/04/22 10:30 LEIB 221030Z 06011KT 030V100 CAVOK 20/13 Q1018 NOSIG
LEBL - Barcelona Airpor, Spain
Distance from station: NNO 225km
Actualización: 22/04/2018 12:30
Despejado
Despejado
 Viento del SSO
Viento: SSO 24 km/h
Temperatura: 19°C
Rocío: 12°C
Humedad: 64%
Barómetro: 1018 hPa
Resumen: Despejado
Visibility: greater than 10 km
2018/04/22 10:30 LEBL 221030Z 20013KT CAVOK 19/12 Q1018 NOSIG
 
LEVC - Valencia (civ/Mi, Spain
Distance from station: NO 188km
Actualización: 22/04/2018 12:30
Few Clouds
Few Clouds
 Viento del ENE
Viento: ENE 6 km/h
Temperatura: 22°C
Rocío: 10°C
Humedad: 47%
Barómetro: 1018 hPa
Clouds: Few Clouds
Visibility: 10 km
Cloud details: Few Clouds 1524 m
2018/04/22 10:30 LEVC 221030Z 06003KT 350V120 9999 FEW050 22/10 Q1018 NOSIG
LEGE - Gerona/Costa Bra, Spain
Distance from station: N 276km
Actualización: 22/04/2018 12:30
Despejado
Despejado
 Viento del S
Viento: S 13 km/h
Temperatura: 23°C
Rocío: 12°C
Humedad: 50%
Barómetro: 1018 hPa
Resumen: Despejado
Visibility: greater than 10 km
2018/04/22 10:30 LEGE 221030Z 18007KT 140V210 CAVOK 23/12 Q1018
 
LEAL - Alicante/El Alte, Spain
Distance from station: OSO 344km
Actualización: 22/04/2018 12:30
Despejado
Despejado
 Viento del ENE
Viento: ENE 28 km/h
Temperatura: 22°C
Rocío: 10°C
Humedad: 47%
Barómetro: 1017 hPa
Resumen: Despejado
Visibility: greater than 10 km
2018/04/22 10:30 LEAL 221030Z 07015KT CAVOK 22/10 Q1017 NOSIG
LEAM - Almeria Airport, Spain
Distance from station: SSO 56km
Actualización: 22/04/2018 12:30
Few Clouds
Few Clouds
 Viento del ENE
Viento: ENE 28 km/h
Temperatura: 26°C
Rocío: 9°C
Humedad: 34%
Barómetro: 1013 hPa
Clouds: Few Clouds
Visibility: 10 km
Cloud details: Few Clouds 2743 m
2018/04/22 10:30 LEAM 221030Z 07015KT 030V100 9999 FEW090 26/09 Q1013
 
LEZG - Zaragoza (mil/Ci, Spain
Distance from station: NO 431km
Actualización: 22/04/2018 12:30
Despejado
Despejado
 Viento del ENE
Viento: ENE 9 km/h
Temperatura: 19°C
Rocío: 10°C
Humedad: 56%
Barómetro: 1018 hPa
Resumen: Despejado
Visibility: greater than 10 km
2018/04/22 10:30 LEZG 221030Z 07005KT 030V100 CAVOK 19/10 Q1018
LEMD - Madrid/Barajas, Spain
Distance from station: ONO 234km
Actualización: 22/04/2018 12:30
Despejado
Despejado
 Viento del N
Viento: N 7 km/h
Temperatura: 21°C
Rocío: 11°C
Humedad: 53%
Barómetro: 1017 hPa
Resumen: Despejado
Visibility: greater than 10 km
2018/04/22 10:30 LEMD 221030Z 01004KT CAVOK 21/11 Q1017 NOSIG
 
LEGR - Granada Airport, Spain
Distance from station: OSO 62km
Actualización: 22/04/2018 12:30
Parcialmente nuboso
Parcialmente nuboso
 Viento del varies
Viento: varies 2 km/h
Temperatura: 22°C
Rocío: 10°C
Humedad: 47%
Barómetro: 1013 hPa
Clouds: Parcialmente nuboso
Visibility: 10 km
Cloud details: Parcialmente nuboso 2286 m
2018/04/22 10:30 LEGR 221030Z VRB01KT 9999 SCT075 22/10 Q1013
LEMG - Malaga (civ/Mil), Spain
Distance from station: OSO 227km
Actualización: 22/04/2018 12:30
Parcialmente nuboso
Parcialmente nuboso
 Viento del SSE
Viento: SSE 11 km/h
Temperatura: 21°C
Rocío: 15°C
Humedad: 69%
Barómetro: 1013 hPa
Clouds: Parcialmente nuboso
Visibility: 7 km
2018/04/22 10:30 LEMG 221030Z 15006KT 100V200 7000 NSC 21/15 Q1013 NOSIG
 
LEZL - Sevilla (civ/Mil, Spain
Distance from station: S 318km
Actualización: 22/04/2018 12:30
Parcialmente nuboso
Parcialmente nuboso
 Viento del calm
Viento: Calma
Temperatura: 21°C
Rocío: 14°C
Humedad: 64%
Barómetro: 1013 hPa
Clouds: Parcialmente nuboso
Visibility: 10 km
Cloud details: Parcialmente nuboso 762 m
2018/04/22 10:30 LEZL 221030Z 00000KT 9999 SCT025 21/14 Q1013 NOSIG
LEVT - Vitoria, Spain
Distance from station: NO 226km
Actualización: 22/04/2018 12:30
Few Clouds
Few Clouds
 Viento del SO
Viento: SO 2 km/h
Temperatura: 20°C
Rocío: 11°C
Humedad: 56%
Barómetro: 1018 hPa
Clouds: Few Clouds
Visibility: 10 km
Cloud details: Few Clouds 610 m
2018/04/22 10:30 LEVT 221030Z 22001KT 9999 FEW020 20/11 Q1018
 
LEBB - Bilbao/Sondica, Spain
Distance from station: NNO 235km
Actualización: 22/04/2018 12:30
Despejado
Despejado
 Viento del NO
Viento: NO 17 km/h
Temperatura: 22°C
Rocío: 12°C
Humedad: 53%
Barómetro: 1017 hPa
Resumen: Despejado
Visibility: greater than 10 km
2018/04/22 10:30 LEBB 221030Z 31009KT 280V340 CAVOK 22/12 Q1017 NOSIG
LESO - San Sebastian/Fu, Spain
Distance from station: N 231km
Actualización: 22/04/2018 12:30
Despejado
Despejado
 Viento del ONO
Viento: ONO 15 km/h
Temperatura: 20°C
Rocío: 11°C
Humedad: 56%
Barómetro: 1017 hPa
Resumen: Despejado
Visibility: greater than 10 km
2018/04/22 10:30 LESO 221030Z 30008KT 260V350 CAVOK 20/11 Q1017
 
LEVD - Valladolid(Mil/C, Spain
Distance from station: ONO 239km
Actualización: 22/04/2018 12:30
Few Clouds
Few Clouds
 Viento del E
Viento: E 6 km/h
Temperatura: 12°C
Rocío: 10°C
Humedad: 88%
Barómetro: 1018 hPa
Clouds: Few Clouds
Visibility: 10 km
Cloud details: Few Clouds 975 m
2018/04/22 10:30 LEVD 221030Z 09003KT 030V120 9999 FEW032 12/10 Q1018
LESA - Salamanca (civ/M, Spain
Distance from station: ONO 349km
Actualización: 22/04/2018 12:30
Despejado
Despejado
 Viento del varies
Viento: varies 4 km/h
Temperatura: 17°C
Rocío: 12°C
Humedad: 73%
Barómetro: 1017 hPa
Resumen: Despejado
Visibility: greater than 10 km
2018/04/22 10:30 LESA 221030Z VRB02KT CAVOK 17/12 Q1017
 
LEXJ - Santander/Paraya, Spain
Distance from station: NNO 247km
Actualización: 22/04/2018 12:30
Despejado
Despejado
 Viento del OSO
Viento: OSO 6 km/h
Temperatura: 21°C
Rocío: 13°C
Humedad: 60%
Barómetro: 1017 hPa
Resumen: Despejado
Visibility: greater than 10 km
2018/04/22 10:30 LEXJ 221030Z 24003KT 130V300 CAVOK 21/13 Q1017
LEAS - Asturias/Aviles, Spain
Distance from station: NO 214km
Actualización: 22/04/2018 12:30
Patches of fog, Few clouds
Patches of fog, Few clouds
 Viento del NNE
Viento: NNE 6 km/h
Temperatura: 16°C
Rocío: 14°C
Humedad: 88%
Barómetro: 1016 hPa
Resumen: Patches of Fog
Clouds: Few Clouds
Visibility: 7 km
Cloud details: Few Clouds 61 m
2018/04/22 10:30 LEAS 221030Z 02003KT 300V070 7000 1000W BCFG FEW002 16/14 Q1016 TEMPO 3000 BR BKN005
 
LECO - La Coruna/Alvedr, Spain
Distance from station: ONO 222km
Actualización: 22/04/2018 12:30
Muy nuboso
Muy nuboso
 Viento del NE
Viento: NE 7 km/h
Temperatura: 14°C
Rocío: 12°C
Humedad: 88%
Barómetro: 1017 hPa
Clouds: Muy nuboso
Visibility: 6 km
Cloud details: Muy nuboso 213 m
2018/04/22 10:30 LECO 221030Z 05004KT 010V100 6000 BKN007 14/12 Q1017 TEMPO 3000 BR
LEVX - Vigo/Peinador, Spain
Distance from station: O 214km
Actualización: 22/04/2018 12:30
Despejado
Despejado
 Viento del ENE
Viento: ENE 7 km/h
Temperatura: 20°C
Rocío: 14°C
Humedad: 69%
Barómetro: 1016 hPa
Resumen: Despejado
Visibility: greater than 10 km
2018/04/22 10:30 LEVX 221030Z 07004KT 350V160 CAVOK 20/14 Q1016 NOSIG